sensor_id;sensor_type;location;lat;lon;timestamp;temperature;humidity
14735;DHT22;7458;49.002;8.472;2022-09-02T00:01:17;19.00;91.00
14735;DHT22;7458;49.002;8.472;2022-09-02T00:03:46;18.90;91.30
14735;DHT22;7458;49.002;8.472;2022-09-02T00:06:13;18.80;91.20
14735;DHT22;7458;49.002;8.472;2022-09-02T00:08:42;18.70;92.00
14735;DHT22;7458;49.002;8.472;2022-09-02T00:11:13;18.80;92.70
14735;DHT22;7458;49.002;8.472;2022-09-02T00:13:42;18.70;92.50
14735;DHT22;7458;49.002;8.472;2022-09-02T00:16:09;18.60;92.50
14735;DHT22;7458;49.002;8.472;2022-09-02T00:18:35;18.60;92.80
14735;DHT22;7458;49.002;8.472;2022-09-02T00:21:02;18.50;92.80
14735;DHT22;7458;49.002;8.472;2022-09-02T00:23:28;18.40;93.10
14735;DHT22;7458;49.002;8.472;2022-09-02T00:25:54;18.40;93.20
14735;DHT22;7458;49.002;8.472;2022-09-02T00:28:20;18.30;93.60
14735;DHT22;7458;49.002;8.472;2022-09-02T00:30:46;18.30;94.00
14735;DHT22;7458;49.002;8.472;2022-09-02T00:33:12;18.20;93.90
14735;DHT22;7458;49.002;8.472;2022-09-02T00:35:39;18.20;94.50
14735;DHT22;7458;49.002;8.472;2022-09-02T00:38:06;18.20;94.60
14735;DHT22;7458;49.002;8.472;2022-09-02T00:40:33;18.20;94.80
14735;DHT22;7458;49.002;8.472;2022-09-02T00:43:05;18.20;94.80
14735;DHT22;7458;49.002;8.472;2022-09-02T00:45:33;18.20;95.40
14735;DHT22;7458;49.002;8.472;2022-09-02T00:47:59;18.20;95.90
14735;DHT22;7458;49.002;8.472;2022-09-02T00:50:28;18.20;95.70
14735;DHT22;7458;49.002;8.472;2022-09-02T00:53:07;18.20;96.50
14735;DHT22;7458;49.002;8.472;2022-09-02T00:55:40;18.20;96.00
14735;DHT22;7458;49.002;8.472;2022-09-02T00:58:18;18.00;96.50
14735;DHT22;7458;49.002;8.472;2022-09-02T01:00:51;18.00;96.40
14735;DHT22;7458;49.002;8.472;2022-09-02T01:03:22;18.00;96.80
14735;DHT22;7458;49.002;8.472;2022-09-02T01:05:53;17.90;97.10
14735;DHT22;7458;49.002;8.472;2022-09-02T01:08:26;18.00;97.60
14735;DHT22;7458;49.002;8.472;2022-09-02T01:11:00;18.00;97.70
14735;DHT22;7458;49.002;8.472;2022-09-02T01:13:31;18.00;97.60
14735;DHT22;7458;49.002;8.472;2022-09-02T01:16:16;17.90;98.00
14735;DHT22;7458;49.002;8.472;2022-09-02T01:18:55;17.90;98.70
14735;DHT22;7458;49.002;8.472;2022-09-02T01:21:25;17.90;99.00
14735;DHT22;7458;49.002;8.472;2022-09-02T01:23:52;17.90;99.40
14735;DHT22;7458;49.002;8.472;2022-09-02T01:26:19;17.90;99.20
14735;DHT22;7458;49.002;8.472;2022-09-02T01:28:45;17.90;98.90
14735;DHT22;7458;49.002;8.472;2022-09-02T01:31:11;17.90;99.60
14735;DHT22;7458;49.002;8.472;2022-09-02T01:33:37;17.90;99.50
14735;DHT22;7458;49.002;8.472;2022-09-02T01:36:03;17.90;98.80
14735;DHT22;7458;49.002;8.472;2022-09-02T01:38:30;17.90;98.70
14735;DHT22;7458;49.002;8.472;2022-09-02T01:40:56;17.80;98.20
14735;DHT22;7458;49.002;8.472;2022-09-02T01:43:25;17.80;98.20
14735;DHT22;7458;49.002;8.472;2022-09-02T01:45:53;17.80;98.10
14735;DHT22;7458;49.002;8.472;2022-09-02T01:48:21;17.80;97.90
14735;DHT22;7458;49.002;8.472;2022-09-02T01:50:52;17.80;99.10
14735;DHT22;7458;49.002;8.472;2022-09-02T01:53:22;17.80;99.20
14735;DHT22;7458;49.002;8.472;2022-09-02T01:55:48;17.80;99.20
14735;DHT22;7458;49.002;8.472;2022-09-02T01:58:14;17.80;99.90
14735;DHT22;7458;49.002;8.472;2022-09-02T02:00:40;17.70;99.90
14735;DHT22;7458;49.002;8.472;2022-09-02T02:03:06;17.70;99.90
14735;DHT22;7458;49.002;8.472;2022-09-02T02:05:32;17.70;99.90
14735;DHT22;7458;49.002;8.472;2022-09-02T02:07:58;17.60;99.90
14735;DHT22;7458;49.002;8.472;2022-09-02T02:10:25;17.60;99.50
14735;DHT22;7458;49.002;8.472;2022-09-02T02:12:51;17.60;99.80
14735;DHT22;7458;49.002;8.472;2022-09-02T02:15:18;17.60;99.90
14735;DHT22;7458;49.002;8.472;2022-09-02T02:17:45;17.60;99.90
14735;DHT22;7458;49.002;8.472;2022-09-02T02:20:13;17.50;99.90
14735;DHT22;7458;49.002;8.472;2022-09-02T02:22:41;17.50;99.90
14735;DHT22;7458;49.002;8.472;2022-09-02T02:25:08;17.50;99.90
14735;DHT22;7458;49.002;8.472;2022-09-02T02:27:35;17.40;99.90
14735;DHT22;7458;49.002;8.472;2022-09-02T02:30:01;17.30;99.90
14735;DHT22;7458;49.002;8.472;2022-09-02T02:32:27;17.30;99.90
14735;DHT22;7458;49.002;8.472;2022-09-02T02:34:53;17.30;99.90
14735;DHT22;7458;49.002;8.472;2022-09-02T02:37:19;17.20;99.90
14735;DHT22;7458;49.002;8.472;2022-09-02T02:39:45;17.20;99.90
14735;DHT22;7458;49.002;8.472;2022-09-02T02:42:11;17.30;99.90
14735;DHT22;7458;49.002;8.472;2022-09-02T02:44:38;17.20;99.90
14735;DHT22;7458;49.002;8.472;2022-09-02T02:47:06;17.20;99.90
14735;DHT22;7458;49.002;8.472;2022-09-02T02:49:39;17.20;99.90
14735;DHT22;7458;49.002;8.472;2022-09-02T02:52:07;17.20;99.90
14735;DHT22;7458;49.002;8.472;2022-09-02T02:54:33;17.20;99.90
14735;DHT22;7458;49.002;8.472;2022-09-02T02:56:59;17.10;99.90
14735;DHT22;7458;49.002;8.472;2022-09-02T02:59:25;17.10;99.90
14735;DHT22;7458;49.002;8.472;2022-09-02T03:01:51;17.10;99.90
14735;DHT22;7458;49.002;8.472;2022-09-02T03:04:17;17.10;99.90
14735;DHT22;7458;49.002;8.472;2022-09-02T03:06:43;17.10;99.90
14735;DHT22;7458;49.002;8.472;2022-09-02T03:09:09;17.00;99.90
14735;DHT22;7458;49.002;8.472;2022-09-02T03:11:35;17.00;99.90
14735;DHT22;7458;49.002;8.472;2022-09-02T03:14:01;17.00;99.90
14735;DHT22;7458;49.002;8.472;2022-09-02T03:16:27;17.00;99.90
14735;DHT22;7458;49.002;8.472;2022-09-02T03:18:53;17.00;99.90
14735;DHT22;7458;49.002;8.472;2022-09-02T03:21:19;17.00;99.90
14735;DHT22;7458;49.002;8.472;2022-09-02T03:23:46;17.00;99.90
14735;DHT22;7458;49.002;8.472;2022-09-02T03:26:16;16.90;99.90
14735;DHT22;7458;49.002;8.472;2022-09-02T03:28:43;16.90;99.90
14735;DHT22;7458;49.002;8.472;2022-09-02T03:31:15;16.90;99.90
14735;DHT22;7458;49.002;8.472;2022-09-02T03:33:43;16.80;99.90
14735;DHT22;7458;49.002;8.472;2022-09-02T03:36:27;16.80;99.90
14735;DHT22;7458;49.002;8.472;2022-09-02T03:38:56;16.80;99.90
14735;DHT22;7458;49.002;8.472;2022-09-02T03:41:23;16.80;99.90
14735;DHT22;7458;49.002;8.472;2022-09-02T03:43:49;16.70;99.90
14735;DHT22;7458;49.002;8.472;2022-09-02T03:46:16;16.70;99.90
14735;DHT22;7458;49.002;8.472;2022-09-02T03:48:43;16.70;99.90
14735;DHT22;7458;49.002;8.472;2022-09-02T03:51:09;16.70;99.90
14735;DHT22;7458;49.002;8.472;2022-09-02T03:53:35;16.70;99.90
14735;DHT22;7458;49.002;8.472;2022-09-02T03:56:09;16.70;99.90
14735;DHT22;7458;49.002;8.472;2022-09-02T03:58:37;16.60;99.90
14735;DHT22;7458;49.002;8.472;2022-09-02T04:01:04;16.60;99.90
14735;DHT22;7458;49.002;8.472;2022-09-02T04:03:30;16.60;99.90
14735;DHT22;7458;49.002;8.472;2022-09-02T04:05:56;16.50;99.90
14735;DHT22;7458;49.002;8.472;2022-09-02T04:08:23;16.50;99.90
14735;DHT22;7458;49.002;8.472;2022-09-02T04:10:49;16.50;99.90
14735;DHT22;7458;49.002;8.472;2022-09-02T04:13:15;16.50;99.90
14735;DHT22;7458;49.002;8.472;2022-09-02T04:15:43;16.50;99.90
14735;DHT22;7458;49.002;8.472;2022-09-02T04:18:14;16.40;99.90
14735;DHT22;7458;49.002;8.472;2022-09-02T04:20:41;16.40;99.90
14735;DHT22;7458;49.002;8.472;2022-09-02T04:23:07;16.40;99.90
14735;DHT22;7458;49.002;8.472;2022-09-02T04:25:38;16.30;99.90
14735;DHT22;7458;49.002;8.472;2022-09-02T04:28:06;16.30;99.90
14735;DHT22;7458;49.002;8.472;2022-09-02T04:30:32;16.30;99.90
14735;DHT22;7458;49.002;8.472;2022-09-02T04:32:58;16.30;99.90
14735;DHT22;7458;49.002;8.472;2022-09-02T04:35:23;16.30;99.90
14735;DHT22;7458;49.002;8.472;2022-09-02T04:37:49;16.30;99.90
14735;DHT22;7458;49.002;8.472;2022-09-02T04:40:15;16.30;99.90
14735;DHT22;7458;49.002;8.472;2022-09-02T04:42:41;16.30;99.90
14735;DHT22;7458;49.002;8.472;2022-09-02T04:45:07;16.20;99.90
14735;DHT22;7458;49.002;8.472;2022-09-02T04:47:33;16.20;99.90
14735;DHT22;7458;49.002;8.472;2022-09-02T04:49:59;16.20;99.90
14735;DHT22;7458;49.002;8.472;2022-09-02T04:52:25;16.20;99.90
14735;DHT22;7458;49.002;8.472;2022-09-02T04:54:51;16.20;99.90
14735;DHT22;7458;49.002;8.472;2022-09-02T04:57:17;16.10;99.90
14735;DHT22;7458;49.002;8.472;2022-09-02T04:59:42;16.10;99.90
14735;DHT22;7458;49.002;8.472;2022-09-02T05:02:08;16.10;99.90
14735;DHT22;7458;49.002;8.472;2022-09-02T05:04:34;16.00;99.90
14735;DHT22;7458;49.002;8.472;2022-09-02T05:07:01;16.00;99.90
14735;DHT22;7458;49.002;8.472;2022-09-02T05:09:29;16.00;99.90
14735;DHT22;7458;49.002;8.472;2022-09-02T05:11:55;16.00;99.90
14735;DHT22;7458;49.002;8.472;2022-09-02T05:14:23;16.00;99.90
14735;DHT22;7458;49.002;8.472;2022-09-02T05:16:50;16.00;99.90
14735;DHT22;7458;49.002;8.472;2022-09-02T05:19:21;16.00;99.90
14735;DHT22;7458;49.002;8.472;2022-09-02T05:21:49;16.00;99.90
14735;DHT22;7458;49.002;8.472;2022-09-02T05:24:16;16.00;99.90
14735;DHT22;7458;49.002;8.472;2022-09-02T05:26:42;16.00;99.90
14735;DHT22;7458;49.002;8.472;2022-09-02T05:29:11;16.00;99.90
14735;DHT22;7458;49.002;8.472;2022-09-02T05:31:38;16.10;99.90
14735;DHT22;7458;49.002;8.472;2022-09-02T05:34:06;16.10;99.90
14735;DHT22;7458;49.002;8.472;2022-09-02T05:36:33;16.10;99.90
14735;DHT22;7458;49.002;8.472;2022-09-02T05:38:59;16.10;99.90
14735;DHT22;7458;49.002;8.472;2022-09-02T05:41:26;16.10;99.90
14735;DHT22;7458;49.002;8.472;2022-09-02T05:43:55;16.20;99.90
14735;DHT22;7458;49.002;8.472;2022-09-02T05:46:24;16.80;99.90
14735;DHT22;7458;49.002;8.472;2022-09-02T05:48:52;16.20;99.90
14735;DHT22;7458;49.002;8.472;2022-09-02T05:51:44;16.30;99.90
14735;DHT22;7458;49.002;8.472;2022-09-02T05:54:22;16.20;99.90
14735;DHT22;7458;49.002;8.472;2022-09-02T05:57:01;16.30;99.90
14735;DHT22;7458;49.002;8.472;2022-09-02T05:59:34;16.30;99.90
14735;DHT22;7458;49.002;8.472;2022-09-02T06:02:03;16.40;99.90
14735;DHT22;7458;49.002;8.472;2022-09-02T06:04:29;16.50;99.90
14735;DHT22;7458;49.002;8.472;2022-09-02T06:06:56;16.50;99.90
14735;DHT22;7458;49.002;8.472;2022-09-02T06:09:22;16.50;99.90
14735;DHT22;7458;49.002;8.472;2022-09-02T06:11:49;16.60;99.90
14735;DHT22;7458;49.002;8.472;2022-09-02T06:14:18;16.80;99.90
14735;DHT22;7458;49.002;8.472;2022-09-02T06:16:47;17.80;99.90
14735;DHT22;7458;49.002;8.472;2022-09-02T06:19:15;20.60;96.70
14735;DHT22;7458;49.002;8.472;2022-09-02T06:21:40;22.80;91.30
14735;DHT22;7458;49.002;8.472;2022-09-02T06:24:09;24.50;81.40
14735;DHT22;7458;49.002;8.472;2022-09-02T06:26:37;25.80;70.90
14735;DHT22;7458;49.002;8.472;2022-09-02T06:29:05;26.60;64.20
14735;DHT22;7458;49.002;8.472;2022-09-02T06:31:31;27.20;58.60
14735;DHT22;7458;49.002;8.472;2022-09-02T06:33:58;27.80;56.90
14735;DHT22;7458;49.002;8.472;2022-09-02T06:36:26;28.40;54.40
14735;DHT22;7458;49.002;8.472;2022-09-02T06:38:56;28.00;53.10
14735;DHT22;7458;49.002;8.472;2022-09-02T06:41:29;26.00;55.70
14735;DHT22;7458;49.002;8.472;2022-09-02T06:44:00;25.50;57.70
14735;DHT22;7458;49.002;8.472;2022-09-02T06:46:31;26.20;57.00
14735;DHT22;7458;49.002;8.472;2022-09-02T06:49:00;27.10;55.10
14735;DHT22;7458;49.002;8.472;2022-09-02T06:51:31;28.10;53.00
14735;DHT22;7458;49.002;8.472;2022-09-02T06:53:59;29.00;51.20
14735;DHT22;7458;49.002;8.472;2022-09-02T06:56:25;29.30;49.70
14735;DHT22;7458;49.002;8.472;2022-09-02T06:58:52;29.60;48.00
14735;DHT22;7458;49.002;8.472;2022-09-02T07:01:25;29.10;48.40
14735;DHT22;7458;49.002;8.472;2022-09-02T07:03:53;29.00;48.20
14735;DHT22;7458;49.002;8.472;2022-09-02T07:06:42;28.40;48.80
14735;DHT22;7458;49.002;8.472;2022-09-02T07:09:17;28.20;48.40
14735;DHT22;7458;49.002;8.472;2022-09-02T07:11:46;28.80;47.70
14735;DHT22;7458;49.002;8.472;2022-09-02T07:14:17;29.30;47.20
14735;DHT22;7458;49.002;8.472;2022-09-02T07:16:47;29.10;47.20
14735;DHT22;7458;49.002;8.472;2022-09-02T07:19:15;29.20;47.40
14735;DHT22;7458;49.002;8.472;2022-09-02T07:21:42;29.20;47.30
14735;DHT22;7458;49.002;8.472;2022-09-02T07:24:10;29.20;47.60
14735;DHT22;7458;49.002;8.472;2022-09-02T07:26:38;28.40;48.10
14735;DHT22;7458;49.002;8.472;2022-09-02T07:29:05;28.40;48.70
14735;DHT22;7458;49.002;8.472;2022-09-02T07:31:35;28.30;49.20
14735;DHT22;7458;49.002;8.472;2022-09-02T07:34:03;28.10;49.50
14735;DHT22;7458;49.002;8.472;2022-09-02T07:36:30;27.60;49.90
14735;DHT22;7458;49.002;8.472;2022-09-02T07:38:56;26.90;50.80
14735;DHT22;7458;49.002;8.472;2022-09-02T07:41:23;26.20;52.10
14735;DHT22;7458;49.002;8.472;2022-09-02T07:43:49;25.40;53.80
14735;DHT22;7458;49.002;8.472;2022-09-02T07:46:16;25.40;53.90
14735;DHT22;7458;49.002;8.472;2022-09-02T07:48:42;25.40;54.50
14735;DHT22;7458;49.002;8.472;2022-09-02T07:51:09;25.40;54.60
14735;DHT22;7458;49.002;8.472;2022-09-02T07:53:35;25.40;54.10
14735;DHT22;7458;49.002;8.472;2022-09-02T07:56:02;25.30;55.00
14735;DHT22;7458;49.002;8.472;2022-09-02T07:58:28;25.10;54.70
14735;DHT22;7458;49.002;8.472;2022-09-02T08:00:55;25.10;55.30
14735;DHT22;7458;49.002;8.472;2022-09-02T08:03:25;25.50;54.80
14735;DHT22;7458;49.002;8.472;2022-09-02T08:05:52;25.50;53.80
14735;DHT22;7458;49.002;8.472;2022-09-02T08:08:23;25.20;54.60
14735;DHT22;7458;49.002;8.472;2022-09-02T08:10:55;25.50;54.40
14735;DHT22;7458;49.002;8.472;2022-09-02T08:13:21;25.70;55.10
14735;DHT22;7458;49.002;8.472;2022-09-02T08:15:48;26.10;53.60
14735;DHT22;7458;49.002;8.472;2022-09-02T08:18:14;26.20;53.50
14735;DHT22;7458;49.002;8.472;2022-09-02T08:20:40;25.90;53.30
14735;DHT22;7458;49.002;8.472;2022-09-02T08:23:06;25.90;53.40
14735;DHT22;7458;49.002;8.472;2022-09-02T08:25:34;26.20;52.90
14735;DHT22;7458;49.002;8.472;2022-09-02T08:28:01;26.30;52.50
14735;DHT22;7458;49.002;8.472;2022-09-02T08:30:27;26.40;51.70
14735;DHT22;7458;49.002;8.472;2022-09-02T08:32:53;26.00;53.10
14735;DHT22;7458;49.002;8.472;2022-09-02T08:35:19;26.50;52.40
14735;DHT22;7458;49.002;8.472;2022-09-02T08:37:45;26.60;51.90
14735;DHT22;7458;49.002;8.472;2022-09-02T08:40:19;26.80;52.10
14735;DHT22;7458;49.002;8.472;2022-09-02T08:42:53;27.20;51.30
14735;DHT22;7458;49.002;8.472;2022-09-02T08:45:36;27.40;51.30
14735;DHT22;7458;49.002;8.472;2022-09-02T08:48:07;27.30;50.20
14735;DHT22;7458;49.002;8.472;2022-09-02T08:51:03;26.70;50.70
14735;DHT22;7458;49.002;8.472;2022-09-02T08:53:50;26.80;50.10
14735;DHT22;7458;49.002;8.472;2022-09-02T08:56:23;26.70;50.10
14735;DHT22;7458;49.002;8.472;2022-09-02T08:58:52;26.80;50.30
14735;DHT22;7458;49.002;8.472;2022-09-02T09:01:41;26.70;50.50
14735;DHT22;7458;49.002;8.472;2022-09-02T09:04:44;26.70;49.90
14735;DHT22;7458;49.002;8.472;2022-09-02T09:07:22;26.50;50.30
14735;DHT22;7458;49.002;8.472;2022-09-02T09:13:58;26.60;50.10
14735;DHT22;7458;49.002;8.472;2022-09-02T09:16:10;26.50;50.80
14735;DHT22;7458;49.002;8.472;2022-09-02T09:19:09;26.60;49.60
14735;DHT22;7458;49.002;8.472;2022-09-02T09:21:40;26.40;50.40
14735;DHT22;7458;49.002;8.472;2022-09-02T09:24:26;26.40;50.30
14735;DHT22;7458;49.002;8.472;2022-09-02T09:27:24;26.50;50.10
14735;DHT22;7458;49.002;8.472;2022-09-02T09:29:51;26.50;49.40
14735;DHT22;7458;49.002;8.472;2022-09-02T09:35:06;26.60;49.70
14735;DHT22;7458;49.002;8.472;2022-09-02T09:37:41;26.80;48.90
14735;DHT22;7458;49.002;8.472;2022-09-02T09:40:20;27.00;48.50
14735;DHT22;7458;49.002;8.472;2022-09-02T09:45:43;26.70;48.60
14735;DHT22;7458;49.002;8.472;2022-09-02T09:48:26;26.90;47.60
14735;DHT22;7458;49.002;8.472;2022-09-02T09:53:35;27.20;47.20
14735;DHT22;7458;49.002;8.472;2022-09-02T09:56:21;27.20;46.40
14735;DHT22;7458;49.002;8.472;2022-09-02T09:58:49;28.70;47.10
14735;DHT22;7458;49.002;8.472;2022-09-02T10:01:30;27.60;44.90
14735;DHT22;7458;49.002;8.472;2022-09-02T10:04:07;27.50;44.70
14735;DHT22;7458;49.002;8.472;2022-09-02T10:06:37;27.60;44.40
14735;DHT22;7458;49.002;8.472;2022-09-02T10:11:39;27.50;44.30
14735;DHT22;7458;49.002;8.472;2022-09-02T10:14:45;27.50;44.60
14735;DHT22;7458;49.002;8.472;2022-09-02T10:17:25;27.00;44.60
14735;DHT22;7458;49.002;8.472;2022-09-02T10:31:39;27.50;43.90
14735;DHT22;7458;49.002;8.472;2022-09-02T10:43:04;27.70;42.80
14735;DHT22;7458;49.002;8.472;2022-09-02T10:45:44;27.80;43.30
14735;DHT22;7458;49.002;8.472;2022-09-02T11:00:19;28.10;40.80
14735;DHT22;7458;49.002;8.472;2022-09-02T11:06:03;28.20;41.90
14735;DHT22;7458;49.002;8.472;2022-09-02T11:08:45;28.30;41.30
14735;DHT22;7458;49.002;8.472;2022-09-02T11:11:39;28.10;41.00
14735;DHT22;7458;49.002;8.472;2022-09-02T11:14:36;28.00;42.00
14735;DHT22;7458;49.002;8.472;2022-09-02T11:17:23;28.10;41.10
14735;DHT22;7458;49.002;8.472;2022-09-02T11:20:25;28.00;41.60
14735;DHT22;7458;49.002;8.472;2022-09-02T11:28:59;28.30;41.10
14735;DHT22;7458;49.002;8.472;2022-09-02T11:34:18;28.20;40.70
14735;DHT22;7458;49.002;8.472;2022-09-02T11:37:10;28.10;41.20
14735;DHT22;7458;49.002;8.472;2022-09-02T11:39:52;28.20;40.80
14735;DHT22;7458;49.002;8.472;2022-09-02T11:51:42;27.90;41.50
14735;DHT22;7458;49.002;8.472;2022-09-02T11:54:17;27.90;41.10
14735;DHT22;7458;49.002;8.472;2022-09-02T11:56:48;28.00;40.50
14735;DHT22;7458;49.002;8.472;2022-09-02T12:00:00;28.20;39.60
14735;DHT22;7458;49.002;8.472;2022-09-02T12:08:04;27.20;39.30
14735;DHT22;7458;49.002;8.472;2022-09-02T12:13:38;28.00;40.60
14735;DHT22;7458;49.002;8.472;2022-09-02T12:18:44;28.20;40.50
14735;DHT22;7458;49.002;8.472;2022-09-02T12:21:33;28.20;39.10
14735;DHT22;7458;49.002;8.472;2022-09-02T12:24:02;28.00;39.10
14735;DHT22;7458;49.002;8.472;2022-09-02T12:36:49;27.90;39.30
14735;DHT22;7458;49.002;8.472;2022-09-02T12:45:04;27.60;39.00
14735;DHT22;7458;49.002;8.472;2022-09-02T12:56:01;27.50;39.40
14735;DHT22;7458;49.002;8.472;2022-09-02T12:58:33;27.50;39.60
14735;DHT22;7458;49.002;8.472;2022-09-02T13:22:32;27.20;39.40
14735;DHT22;7458;49.002;8.472;2022-09-02T13:28:30;27.30;38.50
14735;DHT22;7458;49.002;8.472;2022-09-02T13:31:16;27.30;38.80
14735;DHT22;7458;49.002;8.472;2022-09-02T13:33:46;27.30;38.80
14735;DHT22;7458;49.002;8.472;2022-09-02T13:36:43;27.30;38.30
14735;DHT22;7458;49.002;8.472;2022-09-02T13:39:24;27.10;39.40
14735;DHT22;7458;49.002;8.472;2022-09-02T13:41:53;27.30;38.80
14735;DHT22;7458;49.002;8.472;2022-09-02T13:44:26;27.10;38.90
14735;DHT22;7458;49.002;8.472;2022-09-02T13:46:58;27.10;38.70
14735;DHT22;7458;49.002;8.472;2022-09-02T13:49:36;27.10;39.20
14735;DHT22;7458;49.002;8.472;2022-09-02T13:52:11;27.00;39.30
14735;DHT22;7458;49.002;8.472;2022-09-02T13:54:45;27.00;38.50
14735;DHT22;7458;49.002;8.472;2022-09-02T13:57:19;27.10;38.50
14735;DHT22;7458;49.002;8.472;2022-09-02T13:59:51;27.10;39.00
14735;DHT22;7458;49.002;8.472;2022-09-02T14:02:19;27.20;38.40
14735;DHT22;7458;49.002;8.472;2022-09-02T14:04:50;27.10;38.90
14735;DHT22;7458;49.002;8.472;2022-09-02T14:07:35;27.20;38.40
14735;DHT22;7458;49.002;8.472;2022-09-02T14:10:06;27.20;38.20
14735;DHT22;7458;49.002;8.472;2022-09-02T14:12:37;27.10;38.60
14735;DHT22;7458;49.002;8.472;2022-09-02T14:15:06;27.20;37.80
14735;DHT22;7458;49.002;8.472;2022-09-02T14:17:35;27.10;38.50
14735;DHT22;7458;49.002;8.472;2022-09-02T14:20:15;27.20;37.80
14735;DHT22;7458;49.002;8.472;2022-09-02T14:22:52;27.20;37.30
14735;DHT22;7458;49.002;8.472;2022-09-02T14:25:20;27.20;37.70
14735;DHT22;7458;49.002;8.472;2022-09-02T14:27:52;27.20;37.90
14735;DHT22;7458;49.002;8.472;2022-09-02T14:30:34;27.20;37.60
14735;DHT22;7458;49.002;8.472;2022-09-02T14:41:29;27.10;38.00
14735;DHT22;7458;49.002;8.472;2022-09-02T14:44:22;27.10;37.80
14735;DHT22;7458;49.002;8.472;2022-09-02T14:46:58;27.00;37.80
14735;DHT22;7458;49.002;8.472;2022-09-02T14:49:47;26.90;38.00
14735;DHT22;7458;49.002;8.472;2022-09-02T14:52:27;26.90;37.80
14735;DHT22;7458;49.002;8.472;2022-09-02T14:54:56;27.00;37.80
14735;DHT22;7458;49.002;8.472;2022-09-02T14:57:35;27.10;37.40
14735;DHT22;7458;49.002;8.472;2022-09-02T15:00:10;26.80;38.10
14735;DHT22;7458;49.002;8.472;2022-09-02T15:02:43;27.00;38.20
14735;DHT22;7458;49.002;8.472;2022-09-02T15:05:13;27.10;38.20
14735;DHT22;7458;49.002;8.472;2022-09-02T15:07:39;27.20;37.50
14735;DHT22;7458;49.002;8.472;2022-09-02T15:10:06;27.00;37.20
14735;DHT22;7458;49.002;8.472;2022-09-02T15:12:37;27.10;37.30
14735;DHT22;7458;49.002;8.472;2022-09-02T15:15:10;27.00;36.90
14735;DHT22;7458;49.002;8.472;2022-09-02T15:17:36;27.10;37.30
14735;DHT22;7458;49.002;8.472;2022-09-02T15:20:02;27.10;37.50
14735;DHT22;7458;49.002;8.472;2022-09-02T15:22:29;27.10;37.80
14735;DHT22;7458;49.002;8.472;2022-09-02T15:24:55;27.20;37.80
14735;DHT22;7458;49.002;8.472;2022-09-02T15:27:22;27.20;37.80
14735;DHT22;7458;49.002;8.472;2022-09-02T15:29:48;27.00;38.70
14735;DHT22;7458;49.002;8.472;2022-09-02T15:32:14;27.00;37.90
14735;DHT22;7458;49.002;8.472;2022-09-02T15:34:40;27.00;37.70
14735;DHT22;7458;49.002;8.472;2022-09-02T15:37:05;26.90;37.20
14735;DHT22;7458;49.002;8.472;2022-09-02T15:39:31;26.80;37.70
14735;DHT22;7458;49.002;8.472;2022-09-02T15:41:57;26.80;38.40
14735;DHT22;7458;49.002;8.472;2022-09-02T15:44:24;26.80;38.10
14735;DHT22;7458;49.002;8.472;2022-09-02T15:46:51;26.80;38.10
14735;DHT22;7458;49.002;8.472;2022-09-02T15:49:18;26.80;38.30
14735;DHT22;7458;49.002;8.472;2022-09-02T15:51:46;26.80;38.40
14735;DHT22;7458;49.002;8.472;2022-09-02T15:54:15;26.70;38.80
14735;DHT22;7458;49.002;8.472;2022-09-02T15:56:44;26.60;39.10
14735;DHT22;7458;49.002;8.472;2022-09-02T15:59:16;26.60;38.80
14735;DHT22;7458;49.002;8.472;2022-09-02T16:01:47;26.70;39.30
14735;DHT22;7458;49.002;8.472;2022-09-02T16:04:15;26.60;39.50
14735;DHT22;7458;49.002;8.472;2022-09-02T16:06:45;26.60;39.20
14735;DHT22;7458;49.002;8.472;2022-09-02T16:09:15;26.60;39.30
14735;DHT22;7458;49.002;8.472;2022-09-02T16:11:47;26.60;39.50
14735;DHT22;7458;49.002;8.472;2022-09-02T16:14:18;26.50;39.50
14735;DHT22;7458;49.002;8.472;2022-09-02T16:16:45;26.50;39.80
14735;DHT22;7458;49.002;8.472;2022-09-02T16:19:11;26.50;40.10
14735;DHT22;7458;49.002;8.472;2022-09-02T16:21:37;26.40;40.50
14735;DHT22;7458;49.002;8.472;2022-09-02T16:24:06;26.40;40.60
14735;DHT22;7458;49.002;8.472;2022-09-02T16:26:34;26.40;40.70
14735;DHT22;7458;49.002;8.472;2022-09-02T16:29:12;26.40;40.50
14735;DHT22;7458;49.002;8.472;2022-09-02T16:31:43;26.40;40.70
14735;DHT22;7458;49.002;8.472;2022-09-02T16:34:12;26.30;40.90
14735;DHT22;7458;49.002;8.472;2022-09-02T16:36:42;26.20;41.10
14735;DHT22;7458;49.002;8.472;2022-09-02T16:39:10;26.30;41.20
14735;DHT22;7458;49.002;8.472;2022-09-02T16:41:45;26.30;41.50
14735;DHT22;7458;49.002;8.472;2022-09-02T16:44:24;26.30;41.40
14735;DHT22;7458;49.002;8.472;2022-09-02T16:46:51;26.30;41.50
14735;DHT22;7458;49.002;8.472;2022-09-02T16:49:19;26.30;41.70
14735;DHT22;7458;49.002;8.472;2022-09-02T16:51:48;26.30;42.00
14735;DHT22;7458;49.002;8.472;2022-09-02T16:54:16;26.40;42.10
14735;DHT22;7458;49.002;8.472;2022-09-02T16:56:42;26.40;42.10
14735;DHT22;7458;49.002;8.472;2022-09-02T16:59:09;26.40;42.20
14735;DHT22;7458;49.002;8.472;2022-09-02T17:01:36;26.40;42.20
14735;DHT22;7458;49.002;8.472;2022-09-02T17:04:04;26.40;42.20
14735;DHT22;7458;49.002;8.472;2022-09-02T17:06:30;26.30;42.60
14735;DHT22;7458;49.002;8.472;2022-09-02T17:08:57;26.20;42.60
14735;DHT22;7458;49.002;8.472;2022-09-02T17:11:29;26.20;42.70
14735;DHT22;7458;49.002;8.472;2022-09-02T17:14:10;26.20;42.90
14735;DHT22;7458;49.002;8.472;2022-09-02T17:16:40;26.10;43.20
14735;DHT22;7458;49.002;8.472;2022-09-02T17:19:07;26.00;43.10
14735;DHT22;7458;49.002;8.472;2022-09-02T17:21:44;25.90;43.50
14735;DHT22;7458;49.002;8.472;2022-09-02T17:24:14;25.90;43.30
14735;DHT22;7458;49.002;8.472;2022-09-02T17:26:42;25.80;43.40
14735;DHT22;7458;49.002;8.472;2022-09-02T17:29:14;25.70;43.50
14735;DHT22;7458;49.002;8.472;2022-09-02T17:31:43;25.60;44.00
14735;DHT22;7458;49.002;8.472;2022-09-02T17:34:09;25.60;44.10
14735;DHT22;7458;49.002;8.472;2022-09-02T17:36:37;25.50;44.60
14735;DHT22;7458;49.002;8.472;2022-09-02T17:39:10;25.40;44.90
14735;DHT22;7458;49.002;8.472;2022-09-02T17:41:37;25.40;44.90
14735;DHT22;7458;49.002;8.472;2022-09-02T17:44:20;25.40;45.20
14735;DHT22;7458;49.002;8.472;2022-09-02T17:46:48;25.30;45.90
14735;DHT22;7458;49.002;8.472;2022-09-02T17:49:15;25.30;46.00
14735;DHT22;7458;49.002;8.472;2022-09-02T17:51:41;25.30;46.20
14735;DHT22;7458;49.002;8.472;2022-09-02T17:54:08;25.20;46.40
14735;DHT22;7458;49.002;8.472;2022-09-02T18:02:41;25.10;47.50
14735;DHT22;7458;49.002;8.472;2022-09-02T18:08:55;24.90;47.90
14735;DHT22;7458;49.002;8.472;2022-09-02T18:11:23;24.90;47.70
14735;DHT22;7458;49.002;8.472;2022-09-02T18:14:13;24.80;47.40
14735;DHT22;7458;49.002;8.472;2022-09-02T18:19:55;24.70;47.20
14735;DHT22;7458;49.002;8.472;2022-09-02T18:44:39;24.10;48.50
14735;DHT22;7458;49.002;8.472;2022-09-02T18:47:21;24.10;48.80
14735;DHT22;7458;49.002;8.472;2022-09-02T18:49:51;24.00;49.10
14735;DHT22;7458;49.002;8.472;2022-09-02T18:52:24;24.00;49.30
14735;DHT22;7458;49.002;8.472;2022-09-02T18:55:12;24.00;49.50
14735;DHT22;7458;49.002;8.472;2022-09-02T18:57:50;24.00;49.70
14735;DHT22;7458;49.002;8.472;2022-09-02T19:00:20;23.90;49.90